Deane, Kentucky
Current Conditions -  °F | °C
As of 4:35 PM on Saturday 25 Oct 2014 (Local Time) from KLNP Reporting Station
Overcast Overcast  
Wind Chill: 63°   Ceiling: 3100
Heat Index: 63°   Visibility: 10mi
Dew Point: 43°   Wind: 6mph
Humidity: 48%   Direction: 240°WSW
Pressure: 30.04"   Gusts: NA
Location:  37.24°N, 82.78°W
Report Text: KLNP 252035Z AUTO 24005KT 10SM OVC031 17/06 A3004 RMK AO2
Loading
Personal Weather Stations






























Interactive Weather Map New forecast layout! Learn more

10-Day Weather Forecast

Advertisements
Track Severe Weather on mobile